Time;durP1;ratioP1;P1;durP2;ratioP2;P2;SDS_P1;SDS_P2;PMS_P1;PMS_P2;Temp;Humidity;BMP_temperature;BMP_pressure;BME280_temperature;BME280_humidity;BME280_pressure;Samples;Min_cycle;Max_cycle;Signal;HPM_P1;HPM_P2
2023/11/25 00:00:12;;;;;;;2.75;2.25;;;;;;;;;;1031836;28;20428;-71
2023/11/25 00:00:42;;;;;;;2.53;2.03;;;;;;;;;;1031176;28;20898;-71
2023/11/25 00:01:14;;;;;;;3.90;3.60;;;;;;;;;;1031902;28;20026;-71
2023/11/25 00:01:44;;;;;;;2.92;2.55;;;;;;;;;;1031608;28;20026;-71
2023/11/25 00:02:14;;;;;;;2.65;1.23;;;;;;;;;;1031911;28;20442;-72
2023/11/25 00:02:45;;;;;;;4.93;1.67;;;;;;;;;;1030832;28;20049;-72
2023/11/25 00:03:15;;;;;;;2.83;2.63;;;;;;;;;;1030993;28;20125;-72
2023/11/25 00:03:47;;;;;;;11.65;4.28;;;;;;;;;;1031481;28;20018;-72
2023/11/25 00:04:18;;;;;;;2.65;1.80;;;;;;;;;;1031645;28;20402;-72
2023/11/25 00:04:49;;;;;;;2.60;2.40;;;;;;;;;;1031061;28;20118;-72
2023/11/25 00:05:19;;;;;;;8.52;3.22;;;;;;;;;;1031810;28;20421;-72
2023/11/25 00:05:50;;;;;;;4.57;2.08;;;;;;;;;;1031705;28;20022;-72
2023/11/25 00:06:21;;;;;;;3.20;1.67;;;;;;;;;;1031601;28;20018;-72
2023/11/25 00:06:51;;;;;;;3.92;3.13;;;;;;;;;;1031213;28;20021;-72
2023/11/25 00:07:21;;;;;;;4.07;2.72;;;;;;;;;;1030844;28;20033;-72
2023/11/25 00:07:52;;;;;;;3.10;2.78;;;;;;;;;;1029570;28;20065;-72
2023/11/25 00:08:22;;;;;;;2.85;2.65;;;;;;;;;;1031298;28;20022;-72
2023/11/25 00:08:53;;;;;;;6.50;1.80;;;;;;;;;;1031094;28;20157;-72
2023/11/25 00:09:24;;;;;;;5.20;2.50;;;;;;;;;;1031269;28;20065;-72
2023/11/25 00:09:54;;;;;;;3.90;3.25;;;;;;;;;;1031418;28;20030;-72
2023/11/25 00:10:25;;;;;;;2.60;2.42;;;;;;;;;;1031331;28;20026;-72
2023/11/25 00:10:55;;;;;;;2.45;2.25;;;;;;;;;;1031282;28;20422;-72
2023/11/25 00:11:27;;;;;;;12.13;1.63;;;;;;;;;;1031542;28;20542;-72
2023/11/25 00:11:58;;;;;;;4.07;2.60;;;;;;;;;;1031746;28;20526;-72
2023/11/25 00:12:28;;;;;;;4.88;1.67;;;;;;;;;;1031561;28;20030;-72
2023/11/25 00:12:59;;;;;;;1.27;1.15;;;;;;;;;;1031599;28;20022;-72
2023/11/25 00:13:29;;;;;;;0.90;0.90;;;;;;;;;;1031592;28;20037;-72
2023/11/25 00:14:00;;;;;;;2.78;2.17;;;;;;;;;;1030749;28;20022;-72
2023/11/25 00:14:30;;;;;;;6.47;2.17;;;;;;;;;;1031633;28;20537;-72
2023/11/25 00:15:01;;;;;;;12.07;1.73;;;;;;;;;;1031683;28;20089;-72
2023/11/25 00:15:31;;;;;;;10.68;1.60;;;;;;;;;;1031133;28;20026;-72
2023/11/25 00:16:02;;;;;;;2.67;1.92;;;;;;;;;;1031327;28;20576;-72
2023/11/25 00:16:32;;;;;;;5.35;2.58;;;;;;;;;;1031232;28;20031;-72
2023/11/25 00:17:03;;;;;;;1.10;1.08;;;;;;;;;;1031319;28;20022;-72
2023/11/25 00:17:34;;;;;;;2.75;2.55;;;;;;;;;;1031309;28;20030;-72
2023/11/25 00:18:04;;;;;;;2.13;1.92;;;;;;;;;;1031341;28;20110;-72
2023/11/25 00:18:35;;;;;;;2.08;1.88;;;;;;;;;;1031090;28;20062;-72
2023/11/25 00:19:05;;;;;;;2.22;0.90;;;;;;;;;;1031771;28;20022;-72
2023/11/25 00:19:36;;;;;;;6.55;3.40;;;;;;;;;;1031505;28;20022;-72
2023/11/25 00:20:07;;;;;;;1.17;1.13;;;;;;;;;;1031816;28;20018;-72
2023/11/25 00:20:37;;;;;;;3.25;2.15;;;;;;;;;;1030788;28;20037;-72
2023/11/25 00:21:08;;;;;;;6.80;3.10;;;;;;;;;;1031805;28;20113;-72
2023/11/25 00:21:38;;;;;;;1.90;1.80;;;;;;;;;;1031055;28;20061;-72
2023/11/25 00:22:09;;;;;;;3.55;2.13;;;;;;;;;;1031346;28;20022;-72
2023/11/25 00:22:41;;;;;;;4.22;2.47;;;;;;;;;;1031431;28;20482;-72
2023/11/25 00:23:12;;;;;;;3.42;3.13;;;;;;;;;;1031621;28;20026;-72
2023/11/25 00:23:42;;;;;;;6.97;2.40;;;;;;;;;;1031274;28;20022;-72
2023/11/25 00:24:12;;;;;;;4.45;3.00;;;;;;;;;;1031513;28;20029;-72
2023/11/25 00:24:43;;;;;;;3.10;2.17;;;;;;;;;;1031069;28;20057;-72
2023/11/25 00:25:15;;;;;;;2.85;2.63;;;;;;;;;;1031542;28;20022;-72
2023/11/25 00:25:45;;;;;;;1.77;1.67;;;;;;;;;;1031115;28;20026;-72
2023/11/25 00:26:15;;;;;;;6.53;4.07;;;;;;;;;;1031447;28;20092;-72
2023/11/25 00:26:47;;;;;;;1.05;0.95;;;;;;;;;;1031085;28;20030;-72
2023/11/25 00:27:17;;;;;;;4.43;2.85;;;;;;;;;;1031481;28;20391;-72
2023/11/25 00:27:49;;;;;;;1.70;1.40;;;;;;;;;;1031476;28;20046;-72
2023/11/25 00:28:19;;;;;;;2.28;2.08;;;;;;;;;;1031672;28;20390;-72
2023/11/25 00:28:51;;;;;;;2.47;2.28;;;;;;;;;;1031447;28;20045;-72
2023/11/25 00:29:21;;;;;;;1.67;1.55;;;;;;;;;;1031179;28;20152;-72
2023/11/25 00:29:52;;;;;;;3.58;1.30;;;;;;;;;;1031588;28;20077;-72
2023/11/25 00:30:23;;;;;;;4.05;1.60;;;;;;;;;;1031623;28;20026;-72
2023/11/25 00:30:54;;;;;;;1.67;1.60;;;;;;;;;;1031088;28;20114;-72
2023/11/25 00:31:24;;;;;;;1.52;1.42;;;;;;;;;;1031501;28;20033;-72
2023/11/25 00:31:55;;;;;;;2.03;1.92;;;;;;;;;;1031315;28;20030;-72
2023/11/25 00:32:25;;;;;;;5.22;3.33;;;;;;;;;;1031256;28;20057;-72
2023/11/25 00:32:56;;;;;;;1.48;1.38;;;;;;;;;;1027030;28;20113;-72
2023/11/25 00:33:26;;;;;;;2.55;1.60;;;;;;;;;;1027289;28;20606;-72
2023/11/25 00:33:58;;;;;;;3.03;2.72;;;;;;;;;;1031384;28;20029;-72
2023/11/25 00:34:29;;;;;;;9.00;3.08;;;;;;;;;;1031178;28;20538;-72
2023/11/25 00:35:00;;;;;;;4.22;1.20;;;;;;;;;;1030628;28;20022;-72
2023/11/25 00:35:31;;;;;;;2.47;1.20;;;;;;;;;;1030577;28;20022;-72
2023/11/25 00:36:01;;;;;;;2.80;2.40;;;;;;;;;;1031539;28;20022;-72
2023/11/25 00:36:32;;;;;;;3.65;1.75;;;;;;;;;;1031477;28;20030;-72
2023/11/25 00:37:02;;;;;;;1.02;1.02;;;;;;;;;;1031204;28;20088;-72
2023/11/25 00:37:33;;;;;;;1.55;1.45;;;;;;;;;;1031562;28;20026;-72
2023/11/25 00:38:08;;;;;;;2.42;2.33;;;;;;;;;;1031548;28;20046;-72
2023/11/25 00:38:38;;;;;;;2.13;1.25;;;;;;;;;;1030963;28;20040;-72
2023/11/25 00:39:09;;;;;;;4.93;2.85;;;;;;;;;;1027260;28;20062;-72
2023/11/25 00:39:39;;;;;;;3.28;3.00;;;;;;;;;;1027224;28;20109;-72
2023/11/25 00:40:15;;;;;;;1.10;1.00;;;;;;;;;;1027396;28;20114;-72
2023/11/25 00:40:47;;;;;;;3.00;2.67;;;;;;;;;;1030168;28;20037;-72
2023/11/25 00:41:17;;;;;;;5.78;3.65;;;;;;;;;;1031939;28;20128;-73
2023/11/25 00:41:48;;;;;;;3.45;3.15;;;;;;;;;;1031302;28;20413;-72
2023/11/25 00:42:21;;;;;;;6.53;2.00;;;;;;;;;;1031609;28;20398;-72
2023/11/25 00:42:52;;;;;;;5.35;4.15;;;;;;;;;;1031418;28;20405;-72
2023/11/25 00:43:22;;;;;;;5.85;2.63;;;;;;;;;;1031481;28;20026;-72
2023/11/25 00:43:52;;;;;;;4.07;3.67;;;;;;;;;;1031659;28;20145;-72
2023/11/25 00:44:23;;;;;;;2.25;1.10;;;;;;;;;;1030995;28;20030;-72
2023/11/25 00:44:54;;;;;;;9.75;4.75;;;;;;;;;;1030970;28;20088;-72
2023/11/25 00:45:25;;;;;;;6.28;5.53;;;;;;;;;;1031557;28;20022;-72
2023/11/25 00:45:55;;;;;;;5.22;3.33;;;;;;;;;;1031648;28;20068;-72
2023/11/25 00:46:26;;;;;;;3.03;2.00;;;;;;;;;;1031454;28;20128;-72
2023/11/25 00:46:56;;;;;;;4.00;3.67;;;;;;;;;;1031494;28;20183;-72
2023/11/25 00:47:27;;;;;;;2.72;2.47;;;;;;;;;;1031575;28;20105;-72
2023/11/25 00:47:58;;;;;;;3.00;2.75;;;;;;;;;;1031262;28;20080;-72
2023/11/25 00:48:31;;;;;;;18.77;4.57;;;;;;;;;;1031352;28;20057;-72
2023/11/25 00:49:01;;;;;;;2.67;2.47;;;;;;;;;;1030177;28;20022;-72
2023/11/25 00:49:36;;;;;;;1.88;1.77;;;;;;;;;;1031212;28;20029;-72
2023/11/25 00:50:08;;;;;;;9.38;4.60;;;;;;;;;;1031334;28;20113;-72
2023/11/25 00:50:39;;;;;;;2.72;2.53;;;;;;;;;;1030375;28;20030;-72
2023/11/25 00:51:09;;;;;;;14.27;3.50;;;;;;;;;;1031620;28;20370;-72
2023/11/25 00:51:40;;;;;;;2.10;1.95;;;;;;;;;;1031417;28;20402;-72
2023/11/25 00:52:10;;;;;;;2.60;2.40;;;;;;;;;;1030870;28;20014;-72
2023/11/25 00:52:41;;;;;;;4.72;2.75;;;;;;;;;;1030921;28;20034;-72
2023/11/25 00:53:12;;;;;;;1.38;1.27;;;;;;;;;;1031241;28;20019;-72
2023/11/25 00:53:43;;;;;;;10.80;4.00;;;;;;;;;;1030843;28;20026;-72
2023/11/25 00:54:13;;;;;;;1.88;0.75;;;;;;;;;;1031262;28;20142;-72
2023/11/25 00:54:44;;;;;;;4.15;3.17;;;;;;;;;;1030921;28;20114;-72
2023/11/25 00:55:14;;;;;;;0.82;0.82;;;;;;;;;;1026240;28;20023;-72
2023/11/25 00:55:46;;;;;;;1.65;1.55;;;;;;;;;;1026109;28;20027;-72
2023/11/25 00:56:17;;;;;;;1.42;1.30;;;;;;;;;;1027105;28;20811;-72
2023/11/25 00:56:47;;;;;;;2.20;1.95;;;;;;;;;;1027109;28;20044;-72
2023/11/25 00:57:17;;;;;;;1.90;1.80;;;;;;;;;;1031371;28;20036;-72
2023/11/25 00:57:48;;;;;;;5.13;4.72;;;;;;;;;;1031015;28;20029;-72
2023/11/25 00:58:18;;;;;;;1.17;1.02;;;;;;;;;;1031186;28;20497;-72
2023/11/25 00:58:49;;;;;;;1.00;1.00;;;;;;;;;;1031380;28;20101;-72
2023/11/25 00:59:20;;;;;;;4.28;3.92;;;;;;;;;;1031723;28;20117;-72
2023/11/25 00:59:51;;;;;;;1.00;0.88;;;;;;;;;;1031153;28;20014;-72
2023/11/25 01:00:25;;;;;;;0.60;0.60;;;;;;;;;;1030900;28;20391;-72
2023/11/25 01:00:55;;;;;;;1.08;1.05;;;;;;;;;;1031121;28;20402;-72
2023/11/25 01:01:25;;;;;;;4.28;2.25;;;;;;;;;;1031129;28;20042;-72
2023/11/25 01:01:56;;;;;;;4.38;2.03;;;;;;;;;;1031586;28;20026;-72
2023/11/25 01:02:27;;;;;;;6.32;1.95;;;;;;;;;;1030782;28;20080;-72
2023/11/25 01:02:58;;;;;;;3.20;2.78;;;;;;;;;;1029395;28;20018;-72
2023/11/25 01:03:28;;;;;;;4.78;3.08;;;;;;;;;;1029571;28;20394;-72
2023/11/25 01:03:59;;;;;;;2.60;2.03;;;;;;;;;;1030822;28;20092;-72
2023/11/25 01:04:29;;;;;;;1.17;1.08;;;;;;;;;;1030365;28;20540;-72
2023/11/25 01:05:00;;;;;;;1.63;1.42;;;;;;;;;;1030171;28;20503;-72
2023/11/25 01:05:30;;;;;;;1.45;1.35;;;;;;;;;;1030002;28;20105;-72
2023/11/25 01:06:06;;;;;;;4.35;2.50;;;;;;;;;;1029680;28;20369;-72
2023/11/25 01:06:37;;;;;;;0.65;0.65;;;;;;;;;;1028970;28;20049;-72
2023/11/25 01:07:08;;;;;;;2.63;2.40;;;;;;;;;;1030385;28;20037;-72
2023/11/25 01:07:38;;;;;;;2.55;2.35;;;;;;;;;;1029094;28;20093;-72
2023/11/25 01:08:09;;;;;;;1.80;1.67;;;;;;;;;;1030526;28;20026;-72
2023/11/25 01:08:40;;;;;;;0.60;0.60;;;;;;;;;;1030370;28;20038;-72
2023/11/25 01:09:12;;;;;;;1.75;1.27;;;;;;;;;;1030805;28;20026;-72
2023/11/25 01:09:43;;;;;;;2.63;2.42;;;;;;;;;;1030435;28;20037;-72
2023/11/25 01:10:13;;;;;;;6.75;2.00;;;;;;;;;;1031376;28;20077;-72
2023/11/25 01:10:45;;;;;;;1.65;1.48;;;;;;;;;;1030738;28;20077;-72
2023/11/25 01:11:15;;;;;;;1.17;1.17;;;;;;;;;;1030946;28;20411;-72
2023/11/25 01:11:46;;;;;;;0.70;0.65;;;;;;;;;;1030916;28;20034;-71
2023/11/25 01:12:16;;;;;;;0.88;0.88;;;;;;;;;;1030823;28;20985;-71
2023/11/25 01:12:47;;;;;;;1.08;1.02;;;;;;;;;;1030259;28;20490;-71
2023/11/25 01:13:17;;;;;;;2.45;2.25;;;;;;;;;;1031403;28;20022;-71
2023/11/25 01:13:48;;;;;;;2.92;1.35;;;;;;;;;;1031498;28;20037;-71
2023/11/25 01:14:18;;;;;;;1.00;1.00;;;;;;;;;;1031069;28;20026;-71
2023/11/25 01:14:49;;;;;;;1.30;0.70;;;;;;;;;;1031097;28;20036;-71
2023/11/25 01:15:19;;;;;;;2.05;1.95;;;;;;;;;;1031208;28;20023;-71
2023/11/25 01:15:51;;;;;;;1.35;1.30;;;;;;;;;;1030670;28;20072;-71
2023/11/25 01:16:21;;;;;;;11.32;3.42;;;;;;;;;;1030636;28;20034;-72
2023/11/25 01:16:52;;;;;;;1.25;1.23;;;;;;;;;;1030880;28;20022;-72
2023/11/25 01:17:24;;;;;;;2.05;1.77;;;;;;;;;;1029725;28;20027;-72
2023/11/25 01:17:54;;;;;;;4.13;3.75;;;;;;;;;;1031098;28;20541;-72
2023/11/25 01:18:25;;;;;;;2.70;2.50;;;;;;;;;;1029309;28;20026;-72
2023/11/25 01:18:55;;;;;;;5.18;3.70;;;;;;;;;;1030513;28;20545;-72
2023/11/25 01:19:27;;;;;;;4.82;1.30;;;;;;;;;;1030897;28;20062;-72
2023/11/25 01:19:58;;;;;;;1.90;1.40;;;;;;;;;;1030646;28;20113;-72
2023/11/25 01:20:28;;;;;;;5.65;4.38;;;;;;;;;;1030648;28;20026;-72
2023/11/25 01:20:59;;;;;;;1.38;1.27;;;;;;;;;;1029794;28;20457;-72
2023/11/25 01:21:29;;;;;;;3.85;1.70;;;;;;;;;;1030303;28;20042;-72
2023/11/25 01:22:00;;;;;;;1.85;1.75;;;;;;;;;;1030364;28;20042;-72
2023/11/25 01:22:30;;;;;;;2.13;1.40;;;;;;;;;;1030448;28;20029;-72
2023/11/25 01:23:00;;;;;;;1.10;1.10;;;;;;;;;;1028809;28;20314;-72
2023/11/25 01:23:31;;;;;;;7.28;4.22;;;;;;;;;;1029786;28;20034;-72
2023/11/25 01:24:01;;;;;;;4.18;1.98;;;;;;;;;;1030849;28;20034;-72
2023/11/25 01:24:32;;;;;;;0.55;0.55;;;;;;;;;;1029682;28;20037;-72
2023/11/25 01:25:02;;;;;;;19.80;2.38;;;;;;;;;;1029934;28;20121;-72
2023/11/25 01:25:33;;;;;;;3.72;2.13;;;;;;;;;;1029974;28;20081;-72
2023/11/25 01:26:04;;;;;;;2.50;2.30;;;;;;;;;;1028271;28;20027;-73
2023/11/25 01:26:34;;;;;;;0.85;0.85;;;;;;;;;;1030302;28;20041;-72
2023/11/25 01:27:06;;;;;;;4.82;3.90;;;;;;;;;;1031085;28;20390;-72
2023/11/25 01:27:36;;;;;;;2.25;2.05;;;;;;;;;;1029568;28;20520;-72
2023/11/25 01:28:07;;;;;;;4.95;1.17;;;;;;;;;;1031099;28;20022;-72
2023/11/25 01:28:37;;;;;;;1.42;1.33;;;;;;;;;;1029712;28;20084;-72
2023/11/25 01:29:08;;;;;;;2.50;1.50;;;;;;;;;;1029997;28;20053;-72
2023/11/25 01:29:38;;;;;;;2.30;2.10;;;;;;;;;;1030377;28;20542;-72
2023/11/25 01:30:09;;;;;;;2.05;1.85;;;;;;;;;;1030214;28;20383;-72
2023/11/25 01:30:39;;;;;;;1.95;1.55;;;;;;;;;;1030603;28;20340;-72
2023/11/25 01:31:10;;;;;;;1.85;1.75;;;;;;;;;;1029733;28;20161;-72
2023/11/25 01:31:41;;;;;;;2.60;2.33;;;;;;;;;;1030352;28;20398;-72
2023/11/25 01:32:11;;;;;;;1.80;1.70;;;;;;;;;;1029326;28;20022;-72
2023/11/25 01:32:42;;;;;;;5.57;2.22;;;;;;;;;;1028954;28;20479;-72
2023/11/25 01:33:12;;;;;;;2.92;2.55;;;;;;;;;;1029384;28;20036;-72
2023/11/25 01:33:43;;;;;;;46.92;3.15;;;;;;;;;;1030273;28;20042;-72
2023/11/25 01:34:13;;;;;;;2.45;1.30;;;;;;;;;;1026741;28;20037;-72
2023/11/25 01:34:44;;;;;;;3.50;2.10;;;;;;;;;;1028981;28;20038;-72
2023/11/25 01:35:14;;;;;;;16.55;3.60;;;;;;;;;;1029460;28;20018;-72
2023/11/25 01:35:45;;;;;;;10.90;3.63;;;;;;;;;;1028869;28;20137;-72
2023/11/25 01:36:15;;;;;;;2.50;2.30;;;;;;;;;;1029517;28;20422;-72
2023/11/25 01:36:47;;;;;;;5.80;1.50;;;;;;;;;;1026133;28;20031;-72
2023/11/25 01:37:17;;;;;;;2.30;1.27;;;;;;;;;;1024002;28;20030;-72
2023/11/25 01:37:48;;;;;;;3.40;1.35;;;;;;;;;;1024542;28;20062;-72
2023/11/25 01:38:18;;;;;;;4.40;2.20;;;;;;;;;;1027243;28;20100;-73
2023/11/25 01:38:49;;;;;;;0.93;0.93;;;;;;;;;;1029482;28;20073;-72
2023/11/25 01:39:19;;;;;;;2.25;1.65;;;;;;;;;;1030129;28;20125;-72
2023/11/25 01:39:50;;;;;;;1.77;1.67;;;;;;;;;;1029789;28;20394;-72
2023/11/25 01:40:22;;;;;;;16.55;3.33;;;;;;;;;;1030102;28;20026;-72
2023/11/25 01:40:55;;;;;;;4.03;2.55;;;;;;;;;;1029048;28;20022;-72
2023/11/25 01:41:26;;;;;;;1.85;1.70;;;;;;;;;;1029380;28;20571;-72
2023/11/25 01:41:57;;;;;;;1.30;1.20;;;;;;;;;;1029504;28;20041;-72
2023/11/25 01:42:27;;;;;;;5.53;1.45;;;;;;;;;;1029764;28;20094;-72
2023/11/25 01:42:58;;;;;;;4.65;3.85;;;;;;;;;;1029608;28;20034;-72
2023/11/25 01:43:28;;;;;;;4.57;0.80;;;;;;;;;;1025066;28;20030;-72
2023/11/25 01:44:00;;;;;;;11.43;3.22;;;;;;;;;;1026318;28;20035;-72
2023/11/25 01:44:31;;;;;;;3.88;2.47;;;;;;;;;;1028982;28;20027;-72
2023/11/25 01:45:02;;;;;;;17.45;2.17;;;;;;;;;;1030865;28;20022;-72
2023/11/25 01:45:33;;;;;;;3.08;2.60;;;;;;;;;;1030233;28;20041;-72
2023/11/25 01:46:04;;;;;;;5.38;2.72;;;;;;;;;;1029409;28;20033;-72
2023/11/25 01:46:38;;;;;;;3.28;2.60;;;;;;;;;;1027122;28;20041;-72
2023/11/25 01:47:09;;;;;;;7.00;2.40;;;;;;;;;;1029178;28;20033;-72
2023/11/25 01:47:39;;;;;;;27.02;2.90;;;;;;;;;;1029241;28;20034;-72
2023/11/25 01:48:10;;;;;;;7.53;3.80;;;;;;;;;;1029813;28;20041;-72
2023/11/25 01:48:40;;;;;;;4.15;3.67;;;;;;;;;;1030248;28;20453;-72
2023/11/25 01:49:11;;;;;;;6.10;2.80;;;;;;;;;;1030593;28;20124;-72
2023/11/25 01:49:42;;;;;;;1.55;1.45;;;;;;;;;;1029244;28;20050;-72
2023/11/25 01:50:12;;;;;;;3.85;2.97;;;;;;;;;;1028818;28;20367;-72
2023/11/25 01:50:47;;;;;;;7.60;3.78;;;;;;;;;;1025972;28;20093;-72
2023/11/25 01:51:18;;;;;;;2.40;2.25;;;;;;;;;;1027380;28;20033;-72
2023/11/25 01:51:49;;;;;;;9.88;4.38;;;;;;;;;;1030310;28;20537;-72
2023/11/25 01:52:19;;;;;;;5.82;2.97;;;;;;;;;;1030324;28;20032;-72
2023/11/25 01:52:50;;;;;;;4.88;4.00;;;;;;;;;;1030332;28;20030;-72
2023/11/25 01:53:21;;;;;;;3.55;2.60;;;;;;;;;;1030148;28;20161;-72
2023/11/25 01:53:52;;;;;;;10.10;4.13;;;;;;;;;;1030429;28;20092;-72
2023/11/25 01:54:24;;;;;;;36.42;4.47;;;;;;;;;;1029985;28;20131;-72
2023/11/25 01:54:55;;;;;;;7.47;3.85;;;;;;;;;;1030076;28;20026;-72
2023/11/25 01:55:27;;;;;;;3.78;3.47;;;;;;;;;;1029613;28;20026;-72
2023/11/25 01:55:58;;;;;;;3.67;3.38;;;;;;;;;;1027135;28;20510;-72
2023/11/25 01:56:29;;;;;;;7.35;3.03;;;;;;;;;;1027155;28;20031;-72
2023/11/25 01:57:01;;;;;;;5.20;1.70;;;;;;;;;;1027606;28;20572;-72
2023/11/25 01:57:32;;;;;;;8.60;3.55;;;;;;;;;;1029139;28;20026;-72
2023/11/25 01:58:04;;;;;;;6.97;3.08;;;;;;;;;;1029650;28;20056;-72
2023/11/25 01:58:34;;;;;;;9.95;4.63;;;;;;;;;;1030621;28;20113;-72
2023/11/25 01:59:06;;;;;;;10.70;3.60;;;;;;;;;;1030149;28;20022;-72
2023/11/25 01:59:37;;;;;;;9.07;4.60;;;;;;;;;;1030364;28;20486;-72
2023/11/25 02:00:09;;;;;;;6.20;4.00;;;;;;;;;;1030312;28;20018;-72
2023/11/25 02:00:40;;;;;;;3.55;2.47;;;;;;;;;;1029417;28;20259;-72
2023/11/25 02:01:10;;;;;;;2.97;2.42;;;;;;;;;;1030582;28;20486;-72
2023/11/25 02:01:41;;;;;;;6.40;3.58;;;;;;;;;;1028120;28;20031;-72
2023/11/25 02:02:14;;;;;;;5.40;3.85;;;;;;;;;;1028153;28;20053;-72
2023/11/25 02:02:45;;;;;;;7.05;2.88;;;;;;;;;;1027912;28;20943;-72
2023/11/25 02:03:16;;;;;;;3.97;3.60;;;;;;;;;;1029634;28;20053;-71
2023/11/25 02:03:47;;;;;;;16.08;3.00;;;;;;;;;;1029382;28;20878;-71
2023/11/25 02:04:17;;;;;;;6.30;3.95;;;;;;;;;;1028929;28;20030;-71
2023/11/25 02:04:48;;;;;;;20.13;4.13;;;;;;;;;;1029776;28;20029;-71
2023/11/25 02:05:18;;;;;;;3.95;2.92;;;;;;;;;;1030755;28;20378;-71
2023/11/25 02:05:49;;;;;;;4.00;3.28;;;;;;;;;;1029958;28;20022;-72
2023/11/25 02:06:19;;;;;;;4.22;2.55;;;;;;;;;;1033141;28;20030;-72
2023/11/25 02:06:50;;;;;;;6.38;3.78;;;;;;;;;;1032833;28;20056;-72
2023/11/25 02:07:21;;;;;;;5.78;5.25;;;;;;;;;;1032100;28;20512;-72
2023/11/25 02:07:51;;;;;;;3.45;2.47;;;;;;;;;;1031424;28;20038;-71
2023/11/25 02:08:22;;;;;;;4.75;2.20;;;;;;;;;;1030446;28;20375;-72
2023/11/25 02:08:53;;;;;;;10.77;3.42;;;;;;;;;;1030786;28;20041;-71
2023/11/25 02:09:24;;;;;;;5.13;3.85;;;;;;;;;;1030781;28;20085;-71
2023/11/25 02:09:55;;;;;;;7.68;4.53;;;;;;;;;;1026548;28;20077;-71
2023/11/25 02:10:25;;;;;;;4.45;2.75;;;;;;;;;;1030447;28;20058;-71
2023/11/25 02:10:56;;;;;;;4.53;3.63;;;;;;;;;;1026623;28;20038;-72
2023/11/25 02:11:27;;;;;;;28.60;3.60;;;;;;;;;;1025717;28;20022;-71
2023/11/25 02:11:58;;;;;;;5.93;1.52;;;;;;;;;;1026793;28;20061;-71
2023/11/25 02:12:29;;;;;;;4.68;2.33;;;;;;;;;;1022723;28;20125;-73
2023/11/25 02:13:02;;;;;;;15.18;4.05;;;;;;;;;;1025540;28;20031;-71
2023/11/25 02:13:33;;;;;;;7.13;3.58;;;;;;;;;;1028534;28;20585;-71
2023/11/25 02:14:04;;;;;;;11.13;4.75;;;;;;;;;;1028596;28;20033;-71
2023/11/25 02:14:35;;;;;;;7.78;5.10;;;;;;;;;;1029228;28;20093;-71
2023/11/25 02:15:11;;;;;;;2.95;2.47;;;;;;;;;;1030935;28;20014;-71
2023/11/25 02:15:41;;;;;;;10.50;3.95;;;;;;;;;;1030022;28;20030;-71
2023/11/25 02:16:12;;;;;;;9.88;3.50;;;;;;;;;;1027367;28;20019;-72
2023/11/25 02:16:43;;;;;;;6.03;3.17;;;;;;;;;;1029852;28;20056;-73
2023/11/25 02:17:14;;;;;;;8.00;3.58;;;;;;;;;;1027192;28;20018;-71
2023/11/25 02:17:45;;;;;;;13.68;3.92;;;;;;;;;;1026964;28;20121;-74
2023/11/25 02:18:16;;;;;;;4.20;2.78;;;;;;;;;;1030601;28;20022;-72
2023/11/25 02:18:47;;;;;;;8.32;5.82;;;;;;;;;;1029958;28;20109;-72
2023/11/25 02:19:18;;;;;;;7.75;5.25;;;;;;;;;;1025195;28;20073;-72
2023/11/25 02:19:48;;;;;;;16.08;6.10;;;;;;;;;;1026120;28;20123;-72
2023/11/25 02:20:36;;;;;;;10.77;2.90;;;;;;;;;;1027665;28;20258;-72
2023/11/25 02:21:06;;;;;;;7.28;2.35;;;;;;;;;;1028912;28;20023;-71
2023/11/25 02:21:40;;;;;;;3.95;3.22;;;;;;;;;;1026738;28;20070;-73
2023/11/25 07:21:40;;;;;;;4.25;3.05;;;;;;;;;;1028932;28;20074;-73
2023/11/25 07:22:11;;;;;;;3.38;2.75;;;;;;;;;;1028675;28;20747;-74
2023/11/25 07:22:42;;;;;;;2.13;2.03;;;;;;;;;;1028304;28;20031;-74
2023/11/25 07:23:21;;;;;;;2.35;2.15;;;;;;;;;;1024989;28;20647;-73
2023/11/25 07:23:51;;;;;;;4.20;3.45;;;;;;;;;;1026685;28;20457;-73
2023/11/25 07:24:27;;;;;;;6.00;3.05;;;;;;;;;;1029150;28;20030;-73
2023/11/25 07:24:58;;;;;;;3.97;2.65;;;;;;;;;;1027291;28;20027;-73
2023/11/25 07:25:29;;;;;;;2.38;1.35;;;;;;;;;;1025819;28;20023;-72
2023/11/25 07:26:00;;;;;;;16.77;0.98;;;;;;;;;;1025010;28;20031;-74
2023/11/25 07:26:30;;;;;;;6.13;2.30;;;;;;;;;;1023388;28;20050;-72
2023/11/25 07:27:05;;;;;;;6.65;2.00;;;;;;;;;;1029004;28;20038;-73
2023/11/25 07:27:35;;;;;;;11.48;4.85;;;;;;;;;;1030010;28;20113;-74
2023/11/25 07:28:05;;;;;;;1.45;1.35;;;;;;;;;;1028507;28;20036;-74
2023/11/25 07:28:36;;;;;;;6.50;2.13;;;;;;;;;;1028542;28;20501;-73
2023/11/25 07:29:09;;;;;;;1.08;1.05;;;;;;;;;;1029223;28;20026;-71
2023/11/25 07:29:41;;;;;;;10.68;2.90;;;;;;;;;;1027057;28;20101;-72
2023/11/25 07:30:12;;;;;;;7.80;3.22;;;;;;;;;;1028667;28;20215;-74
2023/11/25 07:30:43;;;;;;;17.42;4.13;;;;;;;;;;1027404;28;20037;-74
2023/11/25 07:31:13;;;;;;;9.95;1.20;;;;;;;;;;1025363;28;20098;-73
2023/11/25 07:31:44;;;;;;;7.82;4.65;;;;;;;;;;1025427;28;20035;-72
2023/11/25 07:32:15;;;;;;;23.50;4.43;;;;;;;;;;1026366;28;20027;-72
2023/11/25 07:32:45;;;;;;;11.77;4.53;;;;;;;;;;1029425;28;20046;-71
2023/11/25 07:33:16;;;;;;;6.50;3.38;;;;;;;;;;1030103;28;20060;-72
2023/11/25 07:33:46;;;;;;;27.42;3.30;;;;;;;;;;1030833;28;20111;-71
2023/11/25 07:34:16;;;;;;;2.08;1.80;;;;;;;;;;1030446;28;20069;-72
2023/11/25 07:34:47;;;;;;;2.28;1.58;;;;;;;;;;1031089;28;20042;-73
2023/11/25 07:35:18;;;;;;;0.68;0.68;;;;;;;;;;1029980;28;20840;-73
2023/11/25 07:35:49;;;;;;;15.50;3.15;;;;;;;;;;1031469;28;20121;-72
2023/11/25 07:36:21;;;;;;;1.90;1.80;;;;;;;;;;1029597;28;20030;-74
2023/11/25 07:36:52;;;;;;;5.80;3.92;;;;;;;;;;1024757;28;20036;-73
2023/11/25 07:37:22;;;;;;;2.83;1.20;;;;;;;;;;1024442;28;20485;-73
2023/11/25 07:37:53;;;;;;;3.70;2.78;;;;;;;;;;1025849;28;20022;-73
2023/11/25 07:38:24;;;;;;;7.22;3.78;;;;;;;;;;1029825;28;20437;-73
2023/11/25 07:38:54;;;;;;;3.20;1.48;;;;;;;;;;1029895;28;20027;-73
2023/11/25 07:39:29;;;;;;;4.78;2.22;;;;;;;;;;1030849;28;20105;-74
2023/11/25 07:39:59;;;;;;;11.27;2.65;;;;;;;;;;1029425;28;20305;-74
2023/11/25 07:40:30;;;;;;;10.05;2.65;;;;;;;;;;1025721;28;20019;-74
2023/11/25 07:41:00;;;;;;;8.68;1.90;;;;;;;;;;1025513;28;20043;-74
2023/11/25 07:41:31;;;;;;;3.30;2.97;;;;;;;;;;1025929;28;20027;-71
2023/11/25 07:42:01;;;;;;;2.90;1.85;;;;;;;;;;1029696;28;20026;-73
2023/11/25 07:42:32;;;;;;;2.75;1.83;;;;;;;;;;1029483;28;20046;-72
2023/11/25 07:43:03;;;;;;;14.05;4.53;;;;;;;;;;1029757;28;20034;-74
2023/11/25 07:43:33;;;;;;;0.70;0.70;;;;;;;;;;1029542;28;20085;-74
2023/11/25 07:44:04;;;;;;;1.13;0.65;;;;;;;;;;1030308;28;20048;-76
2023/11/25 07:44:35;;;;;;;7.85;4.18;;;;;;;;;;1030331;28;20486;-74
2023/11/25 07:45:09;;;;;;;4.63;2.38;;;;;;;;;;1030905;28;20118;-74
2023/11/25 07:45:40;;;;;;;3.05;2.20;;;;;;;;;;1030649;28;20037;-73
2023/11/25 07:46:11;;;;;;;3.03;1.33;;;;;;;;;;1030460;28;20023;-74
2023/11/25 07:46:41;;;;;;;2.85;2.65;;;;;;;;;;1030723;28;20466;-73
2023/11/25 07:47:15;;;;;;;2.33;2.15;;;;;;;;;;1031151;28;20026;-75
2023/11/25 07:47:46;;;;;;;1.73;1.60;;;;;;;;;;1029636;28;20023;-75
2023/11/25 07:48:16;;;;;;;6.55;1.33;;;;;;;;;;1029436;28;20426;-73
2023/11/25 07:48:47;;;;;;;1.02;0.90;;;;;;;;;;1030202;28;20061;-74
2023/11/25 07:49:18;;;;;;;9.02;2.58;;;;;;;;;;1030642;28;20041;-73
2023/11/25 07:49:48;;;;;;;11.25;4.32;;;;;;;;;;1028191;28;20042;-73
2023/11/25 07:50:19;;;;;;;2.67;1.73;;;;;;;;;;1028804;28;20592;-74
2023/11/25 07:50:49;;;;;;;2.95;2.47;;;;;;;;;;1028823;28;20073;-73
2023/11/25 07:51:20;;;;;;;1.48;1.40;;;;;;;;;;1031537;28;20033;-74
2023/11/25 07:51:50;;;;;;;9.43;1.52;;;;;;;;;;1032527;28;20113;-73
2023/11/25 07:52:21;;;;;;;0.85;0.85;;;;;;;;;;1032902;28;20061;-74
2023/11/25 07:52:51;;;;;;;1.00;1.00;;;;;;;;;;1034894;28;20026;-72
2023/11/25 07:53:22;;;;;;;2.17;1.75;;;;;;;;;;1030575;28;20030;-72
2023/11/25 07:53:53;;;;;;;5.78;4.43;;;;;;;;;;1030816;28;20505;-72
2023/11/25 07:54:26;;;;;;;3.05;1.33;;;;;;;;;;1031214;28;20026;-72
2023/11/25 07:55:14;;;;;;;2.55;2.13;;;;;;;;;;1032411;28;20057;-73
2023/11/25 07:55:44;;;;;;;9.10;3.20;;;;;;;;;;1028194;28;20045;-72
2023/11/25 07:56:14;;;;;;;4.65;3.08;;;;;;;;;;1028106;28;20026;-73
2023/11/25 07:56:45;;;;;;;2.60;1.50;;;;;;;;;;1026126;28;20038;-74
2023/11/25 07:57:16;;;;;;;9.63;3.08;;;;;;;;;;1025937;28;20166;-73
2023/11/25 07:57:47;;;;;;;1.73;1.67;;;;;;;;;;1026615;28;20038;-73
2023/11/25 07:58:18;;;;;;;1.67;1.58;;;;;;;;;;1027387;28;20022;-75
2023/11/25 07:58:49;;;;;;;2.08;1.88;;;;;;;;;;1032166;28;20093;-74
2023/11/25 07:59:20;;;;;;;1.33;1.23;;;;;;;;;;1032029;28;20025;-74
2023/11/25 07:59:51;;;;;;;3.17;2.65;;;;;;;;;;1032443;28;21111;-73
2023/11/25 08:00:25;;;;;;;0.28;0.28;;;;;;;;;;1026710;28;20138;-73
2023/11/25 08:00:58;;;;;;;0.38;0.38;;;;;;;;;;1027401;28;20419;-75
2023/11/25 08:01:28;;;;;;;6.80;1.67;;;;;;;;;;1027530;28;20061;-75
2023/11/25 08:01:59;;;;;;;1.27;1.17;;;;;;;;;;1027768;28;20019;-76
2023/11/25 08:02:29;;;;;;;0.57;0.35;;;;;;;;;;1022048;28;20475;-73
2023/11/25 08:03:02;;;;;;;3.58;1.48;;;;;;;;;;1023863;28;20027;-75
2023/11/25 08:03:33;;;;;;;3.22;1.98;;;;;;;;;;1023424;28;20506;-74
2023/11/25 08:04:04;;;;;;;37.83;2.97;;;;;;;;;;1027479;28;20117;-73
2023/11/25 08:04:37;;;;;;;2.38;2.22;;;;;;;;;;1031576;28;20034;-74
2023/11/25 08:05:07;;;;;;;0.45;0.45;;;;;;;;;;1032555;28;20436;-74